createdAt,value
2023-05-23T00:03:37.768Z,98410.20
2023-05-23T00:14:03.258Z,98407.65
2023-05-23T00:24:29.075Z,98400.58
2023-05-23T00:34:56.181Z,98402.23
2023-05-23T00:45:21.974Z,98411.09
2023-05-23T00:55:48.029Z,98406.66
2023-05-23T01:06:14.041Z,98402.48
2023-05-23T01:16:49.117Z,98398.67
2023-05-23T01:27:25.137Z,98400.12
2023-05-23T01:37:50.706Z,98398.20
2023-05-23T01:48:18.047Z,98396.09
2023-05-23T01:58:44.079Z,98390.02
2023-05-23T02:09:10.284Z,98381.95
2023-05-23T02:19:36.361Z,98378.68
2023-05-23T02:30:02.094Z,98379.57
2023-05-23T02:40:27.994Z,98378.95
2023-05-23T02:50:54.192Z,98378.63
2023-05-23T03:01:20.293Z,98383.89
2023-05-23T03:11:46.332Z,98371.73
2023-05-23T03:22:12.009Z,98368.56
2023-05-23T03:32:37.756Z,98364.36
2023-05-23T03:43:07.258Z,98360.05
2023-05-23T03:53:34.781Z,98356.05
2023-05-23T04:04:02.596Z,98354.73
2023-05-23T04:14:28.850Z,98355.21
2023-05-23T04:24:54.646Z,98353.02
2023-05-23T04:35:20.705Z,98357.04
2023-05-23T04:45:46.701Z,98344.77
2023-05-23T04:56:12.720Z,98336.63
2023-05-23T05:06:38.534Z,98336.11
2023-05-23T05:17:04.724Z,98329.14
2023-05-23T05:27:30.546Z,98317.56
2023-05-23T05:37:56.804Z,98322.95
2023-05-23T05:48:22.403Z,98314.70
2023-05-23T05:58:48.230Z,98311.02
2023-05-23T06:09:14.371Z,98298.66
2023-05-23T06:19:40.617Z,98300.44
2023-05-23T06:30:07.974Z,98291.06
2023-05-23T06:40:33.690Z,98279.91
2023-05-23T06:50:59.938Z,98265.68
2023-05-23T07:01:26.146Z,98262.20
2023-05-23T07:11:52.194Z,98252.77
2023-05-23T07:22:18.011Z,98242.59
2023-05-23T07:32:44.242Z,98234.79
2023-05-23T07:43:10.186Z,98228.67
2023-05-23T07:53:40.424Z,98232.75
2023-05-23T08:04:10.796Z,98221.43
2023-05-23T08:14:49.638Z,98214.15
2023-05-23T08:25:17.689Z,98216.46
2023-05-23T08:35:43.373Z,98210.52
2023-05-23T08:46:09.903Z,98206.48
2023-05-23T08:56:35.998Z,98199.30
2023-05-23T09:07:00.310Z,98197.85
2023-05-23T09:17:26.016Z,98200.67
2023-05-23T09:27:53.534Z,98194.32
2023-05-23T09:38:20.254Z,98191.77
2023-05-23T09:48:49.228Z,98188.95
2023-05-23T09:59:20.323Z,98178.11
2023-05-23T10:09:49.930Z,98160.86
2023-05-23T10:20:18.145Z,98147.90
2023-05-23T10:30:44.723Z,98141.13
2023-05-23T10:41:14.875Z,98132.58
2023-05-23T10:51:42.729Z,98137.71
2023-05-23T11:02:14.770Z,98133.42
2023-05-23T11:12:42.595Z,98124.02
2023-05-23T11:23:10.583Z,98106.39
2023-05-23T11:33:36.651Z,98101.32
2023-05-23T11:44:02.867Z,98090.81
2023-05-23T11:54:30.031Z,98092.23
2023-05-23T12:04:55.990Z,98096.98
2023-05-23T12:15:28.911Z,98109.44
2023-05-23T12:25:56.379Z,98127.02
2023-05-23T12:36:32.331Z,98130.76
2023-05-23T12:46:58.750Z,98146.16
2023-05-23T12:57:23.066Z,98146.21
2023-05-23T13:07:48.710Z,98142.35
2023-05-23T13:18:14.739Z,98133.61
2023-05-23T13:28:39.327Z,98133.66
2023-05-23T13:39:05.399Z,98142.12
2023-05-23T13:49:31.614Z,98157.15
2023-05-23T13:59:57.334Z,98179.75
2023-05-23T14:10:24.111Z,98184.14
2023-05-23T14:20:49.984Z,98178.36
2023-05-23T14:31:16.226Z,98180.55
2023-05-23T14:41:41.948Z,98173.36
2023-05-23T14:52:08.056Z,98160.52
2023-05-23T15:02:34.503Z,98152.84
2023-05-23T15:13:00.490Z,98152.68
2023-05-23T15:23:26.981Z,98157.48
2023-05-23T15:33:52.861Z,98158.02
2023-05-23T15:44:21.962Z,98163.48
2023-05-23T15:54:47.855Z,98159.25
2023-05-23T16:05:13.596Z,98154.58
2023-05-23T16:15:39.911Z,98155.17
2023-05-23T16:26:04.550Z,98153.28
2023-05-23T16:36:30.874Z,98148.10
2023-05-23T16:46:56.627Z,98147.39
2023-05-23T16:57:22.817Z,98151.80
2023-05-23T17:07:48.389Z,98153.52
2023-05-23T17:18:14.094Z,98158.71
2023-05-23T17:28:40.029Z,98164.14
2023-05-23T17:39:05.859Z,98180.30
2023-05-23T17:49:32.053Z,98184.15
2023-05-23T17:59:58.368Z,98189.02
2023-05-23T18:10:24.612Z,98189.80
2023-05-23T18:20:49.408Z,98193.89
2023-05-23T18:31:15.198Z,98201.64
2023-05-23T18:41:41.650Z,98225.51
2023-05-23T18:52:08.372Z,98250.36
2023-05-23T19:02:34.248Z,98261.14
2023-05-23T19:13:00.477Z,98266.46
2023-05-23T19:23:26.672Z,98274.96
2023-05-23T19:33:52.614Z,98277.15
2023-05-23T19:44:18.698Z,98276.55
2023-05-23T19:54:44.392Z,98278.89
2023-05-23T20:05:12.514Z,98281.59
2023-05-23T20:15:40.344Z,98283.97
2023-05-23T20:26:07.630Z,98288.10
2023-05-23T20:36:35.192Z,98293.63
2023-05-23T20:47:01.102Z,98301.79
2023-05-23T20:57:27.577Z,98312.21
2023-05-23T21:07:53.185Z,98318.77
2023-05-23T21:18:19.076Z,98324.02
2023-05-23T21:28:45.217Z,98333.13
2023-05-23T21:39:11.835Z,98341.80
2023-05-23T21:49:38.113Z,98346.82
2023-05-23T22:00:05.119Z,98353.78
2023-05-23T22:10:31.734Z,98358.40
2023-05-23T22:20:57.598Z,98361.59
2023-05-23T22:31:24.261Z,98357.81
2023-05-23T22:41:50.172Z,98358.84
2023-05-23T22:52:16.718Z,98360.70
2023-05-23T23:02:44.611Z,98354.33
2023-05-23T23:13:10.495Z,98347.95
2023-05-23T23:23:38.399Z,98345.08
2023-05-23T23:34:04.289Z,98347.77
2023-05-23T23:44:30.257Z,98344.46
2023-05-23T23:54:56.326Z,98342.96
